Data for 01/18/2018

Time Sea-Level Adjusted Pressure Absolute Pressure Temperature Relative Humidity Dew Point   
(mb) (inHg) (mb) (inHg) (C) (F) (%) (C) (F)
00:05 1019 30.09 848 25.04 1.9 35.3 49 -7.8 17.9
00:10 1019 30.09 848 25.04 1.6 34.9 50 -7.8 18
00:15 1019 30.09 848 25.04 1.6 34.9 50 -7.8 17.9
00:20 1019 30.09 848 25.04 1.8 35.2 49 -7.8 18
00:25 1019 30.09 848 25.04 1.7 35 50 -7.6 18.4
00:30 1019 30.09 848 25.04 1.5 34.6 52 -7.2 19
00:35 1019 30.09 848 25.04 1 33.7 53 -7.4 18.6
00:40 1019 30.09 848 25.04 1.2 34.2 54 -7.1 19.2
00:45 1019 30.09 848 25.04 1.2 34.1 55 -7 19.4
00:50 1018 30.06 848 25.04 1 33.7 52 -7.9 17.9
00:55 1018 30.06 848 25.04 1.3 34.4 47 -8.6 16.4
01:00 1018 30.06 848 25.04 1.6 34.8 48 -8.4 16.9
01:05 1018 30.06 847 25.01 1.4 34.6 51 -7.7 18.1
01:10 1018 30.06 847 25.01 1 33.8 54 -7.3 18.9
01:15 1018 30.06 847 25.01 0.7 33.2 57 -7 19.4
01:20 1018 30.06 847 25.01 0.6 33.1 57 -6.9 19.5
01:25 1018 30.06 847 25.01 0.7 33.3 58 -6.7 19.9
01:30 1018 30.06 847 25.01 0.8 33.4 58 -6.7 20
01:35 1018 30.06 847 25.01 0.7 33.3 57 -6.7 19.9
01:40 1018 30.06 847 25.01 0.7 33.2 58 -6.8 19.8
01:45 1018 30.06 847 25.01 0.9 33.6 55 -7.1 19.2
01:50 1018 30.06 847 25.01 1.2 34.2 52 -7.4 18.6
01:55 1018 30.06 847 25.01 1.5 34.7 54 -6.9 19.5
02:00 1018 30.06 847 25.01 2 35.7 54 -6.4 20.4
02:05 1018 30.06 847 25.01 1.8 35.2 55 -6.4 20.5
02:10 1018 30.06 847 25.01 1.9 35.5 53 -6.6 20.1
02:15 1018 30.06 847 25.01 2 35.6 53 -6.7 20
02:20 1018 30.06 847 25.01 2 35.7 52 -6.8 19.7
02:25 1018 30.06 847 25.01 2.2 36 51 -6.9 19.6
02:30 1018 30.06 847 25.01 2.9 37.3 49 -6.8 19.7
02:35 1018 30.06 847 25.01 2.6 36.7 53 -6 21.2
02:40 1018 30.06 847 25.01 2.3 36.1 55 -5.8 21.5
02:45 1017 30.03 847 25.01 2 35.7 56 -5.9 21.4
02:50 1017 30.03 846 24.98 2.1 35.8 56 -5.7 21.7
02:55 1017 30.03 846 24.98 1.8 35.2 56 -6.1 21
03:00 1017 30.03 846 24.98 1.6 34.9 58 -5.8 21.6
03:05 1017 30.03 846 24.98 1.4 34.6 57 -6.1 21
03:10 1017 30.03 846 24.98 1.5 34.6 55 -6.6 20.1
03:15 1017 30.03 846 24.98 2.1 35.9 53 -6.5 20.4
03:20 1017 30.03 846 24.98 2.4 36.3 53 -6.2 20.9
03:25 1017 30.03 846 24.98 2.3 36.1 55 -5.8 21.6
03:30 1017 30.03 846 24.98 1.8 35.3 56 -6 21.3
03:35 1017 30.03 846 24.98 1.8 35.2 59 -5.5 22.1
03:40 1017 30.03 846 24.98 1.9 35.5 56 -6 21.2
03:45 1016 30 846 24.98 2.5 36.5 52 -6.3 20.7
03:50 1017 30.03 846 24.98 2.9 37.1 54 -5.5 22.2
03:55 1017 30.03 846 24.98 2.2 36 60 -4.6 23.6
04:00 1017 30.03 846 24.98 1.7 35.1 59 -5.4 22.2
04:05 1017 30.03 846 24.98 2.4 36.3 54 -5.9 21.3
04:10 1016 30 846 24.98 2.6 36.7 57 -5 23
04:15 1016 30 846 24.98 1.2 34.1 64 -4.9 23.1
04:20 1016 30 846 24.98 0.5 32.9 64 -5.5 22.1
04:25 1016 30 846 24.98 1.1 34.1 58 -6.1 20.9
04:30 1016 30 845 24.95 2.1 35.8 57 -5.7 21.8
04:35 1016 30 845 24.95 2 35.7 58 -5.4 22.2
04:40 1016 30 845 24.95 1.6 34.9 59 -5.6 21.9
04:45 1016 30 845 24.95 1.8 35.3 58 -5.6 22
04:50 1016 30 845 24.95 1.6 34.8 59 -5.5 22
04:55 1016 30 845 24.95 1.7 35 59 -5.5 22.1
05:00 1016 30 845 24.95 2 35.7 57 -5.5 22.1
05:05 1016 30 845 24.95 2.3 36.2 57 -5.4 22.3
05:10 1016 30 845 24.95 2.4 36.3 57 -5.2 22.7
05:15 1016 30 845 24.95 2.4 36.3 57 -5.2 22.6
05:20 1016 30 845 24.95 2.5 36.5 57 -5.1 22.8
05:25 1016 30 845 24.95 2 35.7 58 -5.3 22.4
05:30 1016 30 845 24.95 1.5 34.8 59 -5.6 22
05:35 1015 29.97 845 24.95 1.4 34.6 61 -5.4 22.4
05:40 1015 29.97 845 24.95 1.5 34.6 59 -5.6 22
05:45 1015 29.97 844 24.92 2.3 36.1 58 -5.3 22.5
05:50 1015 29.97 844 24.92 2.4 36.3 57 -5.2 22.6
05:55 1015 29.97 844 24.92 2.3 36.1 58 -5.1 22.8
06:00 1015 29.97 844 24.92 2.3 36.1 58 -5.2 22.6
06:05 1015 29.97 844 24.92 2.7 36.9 56 -5.2 22.7
06:10 1015 29.97 844 24.92 2.9 37.2 56 -5 23.1
06:15 1015 29.97 844 24.92 3 37.4 56 -5 23
06:20 1015 29.97 844 24.92 3.3 37.9 55 -4.9 23.1
06:25 1015 29.97 844 24.92 3.2 37.8 56 -4.8 23.4
06:30 1015 29.97 844 24.92 3.3 38 55 -4.8 23.4
06:35 1015 29.97 844 24.92 3.5 38.3 55 -4.7 23.5
06:40 1015 29.97 844 24.92 3.5 38.3 54 -4.9 23.2
06:45 1015 29.97 844 24.92 4 39.3 54 -4.5 23.8
06:50 1015 29.97 844 24.92 3.7 38.6 54 -4.7 23.5
06:55 1015 29.97 844 24.92 3.6 38.5 55 -4.6 23.7
07:00 1015 29.97 844 24.92 3.3 38 56 -4.7 23.6
07:05 1015 29.97 844 24.92 3.5 38.3 56 -4.6 23.7
07:10 1015 29.97 844 24.92 3.5 38.3 56 -4.5 23.8
07:15 1015 29.97 844 24.92 3.6 38.4 54 -4.8 23.4
07:20 1015 29.97 844 24.92 3.6 38.5 55 -4.6 23.7
07:25 1014 29.94 844 24.92 3.7 38.7 56 -4.2 24.4
07:30 1014 29.94 843 24.89 3.4 38.1 56 -4.6 23.7
07:35 1014 29.94 844 24.92 3.2 37.8 57 -4.4 24.1
07:40 1014 29.94 844 24.92 3.2 37.8 56 -4.8 23.4
07:45 1014 29.94 844 24.92 3.6 38.4 55 -4.7 23.6
07:50 1014 29.94 844 24.92 3.9 39 54 -4.6 23.8
07:55 1014 29.94 844 24.92 4 39.1 54 -4.5 24
08:00 1015 29.97 844 24.92 3.9 39 55 -4.3 24.3
08:05 1015 29.97 844 24.92 3.9 39 54 -4.5 23.9
08:10 1015 29.97 844 24.92 4.2 39.5 53 -4.5 23.8
08:15 1015 29.97 844 24.92 4.6 40.3 52 -4.4 24
08:20 1015 29.97 844 24.92 4.8 40.6 52 -4.2 24.5
08:25 1015 29.97 844 24.92 4.5 40 54 -3.9 24.9
08:30 1015 29.97 844 24.92 4.4 39.8 54 -4.1 24.5
08:35 1015 29.97 844 24.92 4.4 39.9 52 -4.5 23.9
08:40 1015 29.97 844 24.92 4.5 40.1 54 -4 24.8
08:45 1015 29.97 844 24.92 4.4 39.9 53 -4.4 24.1
08:50 1015 29.97 844 24.92 4.5 40 55 -3.8 25.2
08:55 1015 29.97 844 24.92 4.3 39.7 55 -4 24.9
09:00 1015 29.97 844 24.92 4 39.2 56 -4 24.8
09:05 1015 29.97 844 24.92 4.1 39.3 56 -4 24.8
09:10 1015 29.97 844 24.92 4.2 39.5 55 -4.1 24.7
09:15 1015 29.97 844 24.92 3.9 39 57 -3.8 25.2
09:20 1015 29.97 844 24.92 3.5 38.3 57 -4.1 24.6
09:25 1015 29.97 844 24.92 3.6 38.5 57 -4.1 24.6
09:30 1015 29.97 844 24.92 3.7 38.6 56 -4.3 24.3
09:35 1015 29.97 844 24.92 3.9 39 55 -4.3 24.2
09:40 1015 29.97 844 24.92 4.2 39.6 54 -4.2 24.4
09:45 1015 29.97 844 24.92 4.3 39.7 49 -5.4 22.3
09:50 1015 29.97 844 24.92 4.9 40.9 49 -4.9 23.1
09:55 1014 29.94 844 24.92 5.2 41.4 50 -4.4 24.1
10:00 1014 29.94 844 24.92 5.2 41.4 50 -4.3 24.2
10:05 1014 29.94 844 24.92 5.2 41.3 52 -3.9 25
10:10 1014 29.94 843 24.89 5.1 41.2 52 -3.8 25.1
10:15 1014 29.94 843 24.89 5.2 41.4 51 -4.1 24.6
10:20 1014 29.94 843 24.89 5.4 41.7 51 -3.9 25
10:25 1014 29.94 843 24.89 5.4 41.7 51 -3.9 25.1
10:30 1014 29.94 843 24.89 5.7 42.2 51 -3.8 25.2
10:35 1014 29.94 843 24.89 5.9 42.6 50 -3.8 25.2
10:40 1014 29.94 843 24.89 6 42.8 50 -3.5 25.7
10:45 1014 29.94 843 24.89 6 42.8 50 -3.7 25.4
10:50 1014 29.94 843 24.89 6.4 43.5 47 -4.1 24.6
10:55 1014 29.94 843 24.89 6.7 44 45 -4.3 24.2
11:00 1014 29.94 843 24.89 7.3 45.2 44 -4.1 24.6
11:05 1013 29.91 843 24.89 7.9 46.2 44 -3.6 25.5
11:10 1013 29.91 842 24.86 8.2 46.8 40 -4.4 24
11:15 1013 29.91 842 24.86 9 48.2 39 -4.1 24.6
11:20 1013 29.91 842 24.86 9.4 49 38 -4.2 24.4
11:25 1013 29.91 842 24.86 10.7 51.2 33 -4.9 23.1
11:30 1013 29.91 842 24.86 11.1 52.1 34 -4.2 24.4
11:35 1013 29.91 842 24.86 10.7 51.3 34 -4.6 23.7
11:40 1013 29.91 842 24.86 10.8 51.4 34 -4.5 23.9
11:45 1013 29.91 842 24.86 11.4 52.5 33 -4.3 24.3
11:50 1013 29.91 842 24.86 11.5 52.8 31 -4.8 23.4
11:55 1012 29.88 842 24.86 12.2 53.9 31 -4.5 23.9
12:00 1012 29.88 841 24.83 12.6 54.7 30 -4.5 23.9
12:05 1012 29.88 841 24.83 12.7 54.9 30 -4.4 24.1
12:10 1012 29.88 841 24.83 12.3 54.1 31 -4.5 23.9
12:15 1012 29.88 841 24.83 12.9 55.1 30 -4.3 24.2
12:20 1012 29.88 841 24.83 13.1 55.5 29 -4.3 24.3
12:25 1011 29.85 841 24.83 13.4 56.1 29 -4.1 24.6
12:30 1011 29.85 840 24.81 13.3 55.9 31 -3.3 26
12:35 1011 29.85 840 24.81 13.2 55.7 31 -3.6 25.6
12:40 1011 29.85 840 24.81 11.8 53.2 36 -2.9 26.8
12:45 1011 29.85 840 24.81 10.6 51.2 38 -3 26.7
12:50 1011 29.85 840 24.81 9.8 49.6 40 -3 26.5
12:55 1011 29.85 840 24.81 9.3 48.7 39 -3.8 25.2
13:00 1011 29.85 840 24.81 9.1 48.5 38 -4.5 23.9
13:05 1011 29.85 840 24.81 9.1 48.5 40 -3.9 25
13:10 1011 29.85 840 24.81 9.4 48.9 38 -4.1 24.6
13:15 1011 29.85 840 24.81 9.4 48.8 38 -4.2 24.5
13:20 1011 29.85 840 24.81 9.3 48.7 38 -4.2 24.5
13:25 1011 29.85 840 24.81 9.6 49.3 37 -4.2 24.5
13:30 1011 29.85 840 24.81 9.8 49.7 38 -3.8 25.2
13:35 1011 29.85 840 24.81 9.9 49.9 38 -3.9 25
13:40 1011 29.85 840 24.81 9.5 49.1 39 -3.7 25.4
13:45 1011 29.85 840 24.81 9.4 48.9 37 -4.5 23.8
13:50 1011 29.85 840 24.81 9.4 48.9 37 -4.4 24.1
13:55 1011 29.85 840 24.81 9.3 48.8 38 -4.1 24.6
14:00 1010 29.83 840 24.81 9.4 48.9 37 -4.6 23.8
14:05 1010 29.83 840 24.81 9.4 48.9 37 -4.5 23.9
14:10 1010 29.83 840 24.81 9.4 48.9 39 -3.9 25
14:15 1010 29.83 840 24.81 10 50 38 -3.5 25.7
14:20 1010 29.83 840 24.81 9.6 49.3 41 -2.8 26.9
14:25 1010 29.83 840 24.81 8.9 47.9 44 -2.7 27.2
14:30 1010 29.83 840 24.81 8.8 47.8 42 -3.5 25.7
14:35 1011 29.85 840 24.81 8.9 48.1 43 -3 26.5
14:40 1010 29.83 840 24.81 8.9 48.1 44 -2.5 27.5
14:45 1010 29.83 840 24.81 8.7 47.7 45 -2.7 27.2
14:50 1010 29.83 839 24.78 8.6 47.4 44 -3.1 26.5
14:55 1010 29.83 840 24.81 8.7 47.7 44 -2.7 27.1
15:00 1010 29.83 839 24.78 8.7 47.7 44 -2.7 27.2
15:05 1010 29.83 839 24.78 9.1 48.3 39 -4 24.8
15:10 1010 29.83 839 24.78 10.1 50.2 38 -3.5 25.8
15:15 1010 29.83 839 24.78 10.3 50.5 37 -3.6 25.4
15:20 1010 29.83 839 24.78 10.3 50.5 38 -3.2 26.2
15:25 1010 29.83 839 24.78 10.2 50.3 37 -3.7 25.4
15:30 1010 29.83 839 24.78 10.2 50.4 39 -3.2 26.2
15:35 1010 29.83 839 24.78 10.1 50.1 39 -3.1 26.4
15:40 1010 29.83 839 24.78 10.1 50.1 39 -3.4 26
15:45 1010 29.83 839 24.78 10 50 38 -3.6 25.5
15:50 1010 29.83 839 24.78 10.3 50.5 37 -3.7 25.3
15:55 1010 29.83 839 24.78 10.4 50.8 37 -3.5 25.7
16:00 1009 29.8 839 24.78 10.3 50.6 37 -3.8 25.1
16:05 1009 29.8 838 24.75 10.3 50.6 37 -3.7 25.3
16:10 1009 29.8 838 24.75 10.5 50.9 36 -3.9 25
16:15 1009 29.8 838 24.75 10.4 50.6 37 -3.5 25.7
16:20 1009 29.8 838 24.75 10.2 50.4 36 -4.1 24.6
16:25 1009 29.8 838 24.75 10.4 50.7 37 -3.5 25.7
16:30 1009 29.8 838 24.75 10.1 50.2 37 -3.8 25.1
16:35 1009 29.8 838 24.75 10 50 38 -3.8 25.1
16:40 1009 29.8 838 24.75 10.1 50.2 38 -3.6 25.5
16:45 1009 29.8 838 24.75 10 50 38 -3.5 25.6
16:50 1009 29.8 838 24.75 10 50 38 -3.8 25.2
16:55 1009 29.8 838 24.75 9.9 49.8 39 -3.4 25.9
17:00 1009 29.8 838 24.75 9.6 49.3 38 -4 24.8
17:05 1009 29.8 838 24.75 9.8 49.7 39 -3.3 26.1
17:10 1009 29.8 838 24.75 9.8 49.6 38 -3.8 25.1
17:15 1009 29.8 838 24.75 9.8 49.7 38 -3.8 25.1
17:20 1009 29.8 838 24.75 10 50 38 -3.5 25.6
17:25 1009 29.8 838 24.75 9.8 49.7 39 -3.6 25.6
17:30 1008 29.77 838 24.75 9.9 49.8 39 -3.4 25.8
17:35 1008 29.77 838 24.75 9.7 49.4 39 -3.6 25.6
17:40 1008 29.77 838 24.75 9.8 49.6 39 -3.6 25.5
17:45 1008 29.77 837 24.72 9.7 49.4 39 -3.7 25.4
17:50 1008 29.77 837 24.72 9.8 49.7 39 -3.4 25.8
17:55 1008 29.77 837 24.72 9.7 49.4 39 -3.5 25.6
18:00 1008 29.77 837 24.72 9.7 49.4 39 -3.5 25.6
18:05 1008 29.77 837 24.72 9.6 49.2 40 -3.4 25.9
18:10 1008 29.77 837 24.72 9.5 49.1 40 -3.4 25.9
18:15 1008 29.77 837 24.72 9.6 49.3 39 -3.7 25.3
18:20 1008 29.77 837 24.72 9.7 49.4 39 -3.7 25.3
18:25 1008 29.77 837 24.72 9.7 49.5 39 -3.5 25.6
18:30 1007 29.74 836 24.69 9.9 49.8 38 -3.8 25.1
18:35 1007 29.74 836 24.69 10.2 50.3 38 -3.4 25.9
18:40 1007 29.74 836 24.69 10.2 50.3 37 -3.7 25.3
18:45 1007 29.74 836 24.69 10.3 50.5 38 -3.5 25.6
18:50 1007 29.74 836 24.69 10.4 50.8 38 -3.2 26.3
18:55 1007 29.74 836 24.69 10.1 50.3 38 -3.5 25.7
19:00 1007 29.74 836 24.69 10.3 50.5 39 -3.1 26.5
19:05 1007 29.74 836 24.69 10 50 40 -2.9 26.8
19:10 1007 29.74 836 24.69 10 50 39 -3.2 26.2
19:15 1007 29.74 836 24.69 10.1 50.1 40 -2.8 26.9
19:20 1007 29.74 836 24.69 9.8 49.6 41 -2.6 27.2
19:25 1007 29.74 836 24.69 9.4 48.8 43 -2.5 27.5
19:30 1007 29.74 836 24.69 9 48.2 45 -2.2 28
19:35 1007 29.74 836 24.69 8 46.3 47 -2.6 27.4
19:40 1007 29.74 836 24.69 7.5 45.6 47 -3 26.7
19:45 1007 29.74 836 24.69 7.4 45.4 49 -2.6 27.3
19:50 1007 29.74 836 24.69 7.2 44.9 49 -2.8 26.9
19:55 1007 29.74 836 24.69 7.1 44.8 51 -2.5 27.6
20:00 1007 29.74 836 24.69 6.8 44.2 52 -2.5 27.5
20:05 1007 29.74 836 24.69 6.6 43.9 53 -2.4 27.7
20:10 1007 29.74 836 24.69 6.5 43.7 53 -2.4 27.8
20:15 1007 29.74 836 24.69 6.5 43.7 54 -2.2 28
20:20 1007 29.74 836 24.69 6.3 43.3 55 -2 28.3
20:25 1007 29.74 836 24.69 6.1 42.9 57 -1.9 28.7
20:30 1007 29.74 836 24.69 5.9 42.6 58 -1.7 28.9
20:35 1007 29.74 836 24.69 5.7 42.2 59 -1.6 29
20:40 1007 29.74 836 24.69 5.4 41.8 60 -1.6 29.1
20:45 1007 29.74 836 24.69 5.3 41.5 61 -1.6 29.1
20:50 1007 29.74 837 24.72 5 40.9 62 -1.6 29.1
20:55 1007 29.74 837 24.72 4.8 40.6 63 -1.6 29
21:00 1007 29.74 837 24.72 4.7 40.5 63 -1.7 29
21:05 1008 29.77 837 24.72 4.7 40.5 63 -1.7 28.9
21:10 1008 29.77 837 24.72 4.8 40.6 62 -1.8 28.8
21:15 1008 29.77 837 24.72 4.8 40.7 63 -1.7 28.9
21:20 1008 29.77 837 24.72 4.8 40.7 63 -1.6 29.1
21:25 1008 29.77 837 24.72 4.9 40.8 63 -1.6 29.1
21:30 1008 29.77 837 24.72 4.9 40.8 63 -1.6 29.1
21:35 1008 29.77 837 24.72 5 41 63 -1.5 29.3
21:40 1008 29.77 837 24.72 5 41 64 -1.3 29.6
21:45 1008 29.77 837 24.72 4.7 40.5 64 -1.4 29.5
21:50 1008 29.77 837 24.72 4.7 40.4 65 -1.3 29.6
21:55 1008 29.77 837 24.72 4.6 40.4 66 -1.2 29.9
22:00 1008 29.77 837 24.72 4.3 39.8 69 -0.9 30.4
22:05 1008 29.77 838 24.75 4 39.3 71 -0.8 30.6
22:10 1009 29.8 838 24.75 3.7 38.6 74 -0.6 31
22:15 1009 29.8 838 24.75 3.1 37.6 78 -0.4 31.2
22:20 1009 29.8 838 24.75 2.6 36.7 81 -0.4 31.3
22:25 1009 29.8 838 24.75 2.1 35.9 83 -0.5 31.2
22:30 1009 29.8 838 24.75 1.8 35.3 85 -0.4 31.2
22:35 1009 29.8 838 24.75 1.7 35 86 -0.4 31.2
22:40 1009 29.8 838 24.75 1.5 34.7 87 -0.5 31.1
22:45 1009 29.8 838 24.75 1.2 34.1 88 -0.7 30.8
22:50 1009 29.8 839 24.78 0.9 33.7 89 -0.7 30.7
22:55 1009 29.8 839 24.78 0.8 33.4 89 -0.8 30.6
23:00 1009 29.8 839 24.78 0.6 33.1 90 -0.8 30.5
23:05 1009 29.8 838 24.75 0.5 33 90 -0.9 30.5
23:10 1009 29.8 838 24.75 0.5 33 91 -0.8 30.5
23:15 1009 29.8 839 24.78 0.5 32.9 91 -0.8 30.5
23:20 1009 29.8 839 24.78 0.4 32.8 91 -0.9 30.4
23:25 1009 29.8 839 24.78 0.3 32.6 91 -0.9 30.3
23:30 1009 29.8 839 24.78 0.2 32.4 92 -0.9 30.3
23:35 1009 29.8 839 24.78 0.2 32.4 92 -0.9 30.4
23:40 1009 29.8 839 24.78 0.2 32.3 92 -0.9 30.3
23:45 1009 29.8 839 24.78 0.1 32.1 93 -1 30.2
23:50 1009 29.8 839 24.78 -0 32 93 -1 30.1
23:55 1009 29.8 839 24.78 -0 32 93 -1 30.2
24:00 1009 29.8 839 24.78 -0 32 93 -1 30.2